createdAt,value
2018-05-17T00:02:12.076Z,83.40
2018-05-17T00:04:39.548Z,83.40
2018-05-17T00:07:06.996Z,83.40
2018-05-17T00:09:34.473Z,83.70
2018-05-17T00:12:01.924Z,83.90
2018-05-17T00:14:29.388Z,84.20
2018-05-17T00:16:57.612Z,84.50
2018-05-17T00:19:25.068Z,84.40
2018-05-17T00:21:52.520Z,84.60
2018-05-17T00:24:19.977Z,84.80
2018-05-17T00:26:48.306Z,85.30
2018-05-17T00:29:15.790Z,85.30
2018-05-17T00:31:43.228Z,85.30
2018-05-17T00:34:10.689Z,85.70
2018-05-17T00:36:38.153Z,85.00
2018-05-17T00:39:05.624Z,84.70
2018-05-17T00:41:33.851Z,84.20
2018-05-17T00:44:01.305Z,84.20
2018-05-17T00:46:28.774Z,84.40
2018-05-17T00:48:56.298Z,84.00
2018-05-17T00:51:24.539Z,83.10
2018-05-17T00:53:51.987Z,83.10
2018-05-17T00:56:19.462Z,83.50
2018-05-17T00:58:46.914Z,82.90
2018-05-17T01:01:15.212Z,82.20
2018-05-17T01:03:42.661Z,81.10
2018-05-17T01:06:10.894Z,81.00
2018-05-17T01:08:38.350Z,80.90
2018-05-17T01:11:05.808Z,80.30
2018-05-17T01:13:33.273Z,80.20
2018-05-17T01:16:00.746Z,81.40
2018-05-17T01:18:28.197Z,81.90
2018-05-17T01:20:55.665Z,80.40
2018-05-17T01:23:23.121Z,80.10
2018-05-17T01:25:51.359Z,80.10
2018-05-17T01:28:18.834Z,80.10
2018-05-17T01:30:46.293Z,81.30
2018-05-17T01:33:13.861Z,82.20
2018-05-17T01:35:41.309Z,81.30
2018-05-17T01:38:20.720Z,81.60
2018-05-17T01:40:48.174Z,81.70
2018-05-17T01:43:15.636Z,82.70
2018-05-17T01:45:43.088Z,82.20
2018-05-17T01:48:10.549Z,82.60
2018-05-17T01:50:38.145Z,83.00
2018-05-17T01:53:05.753Z,83.10
2018-05-17T01:55:33.200Z,82.70
2018-05-17T01:58:00.742Z,82.10
2018-05-17T02:00:28.201Z,81.50
2018-05-17T02:02:55.669Z,81.10
2018-05-17T02:05:23.124Z,81.40
2018-05-17T02:07:50.609Z,81.30
2018-05-17T02:10:18.079Z,81.80
2018-05-17T02:12:45.550Z,82.00
2018-05-17T02:15:13.003Z,82.40
2018-05-17T02:17:40.476Z,82.60
2018-05-17T02:20:07.940Z,83.00
2018-05-17T02:22:35.408Z,83.00
2018-05-17T02:25:02.860Z,82.70
2018-05-17T02:27:31.094Z,83.50
2018-05-17T02:29:58.554Z,83.50
2018-05-17T02:32:26.024Z,82.80
2018-05-17T02:34:53.503Z,83.20
2018-05-17T02:37:20.941Z,83.00
2018-05-17T02:39:48.412Z,84.00
2018-05-17T02:42:15.874Z,84.40
2018-05-17T02:44:43.343Z,84.30
2018-05-17T02:47:10.793Z,84.10
2018-05-17T02:49:39.029Z,83.60
2018-05-17T02:52:06.484Z,83.60
2018-05-17T02:54:33.955Z,83.70
2018-05-17T02:57:01.418Z,83.30
2018-05-17T02:59:28.881Z,83.50
2018-05-17T03:01:56.337Z,84.00
2018-05-17T03:04:23.811Z,83.80
2018-05-17T03:06:51.268Z,83.70
2018-05-17T03:09:19.488Z,82.60
2018-05-17T03:11:47.039Z,82.50
2018-05-17T03:14:14.497Z,82.20
2018-05-17T03:16:42.715Z,83.40
2018-05-17T03:19:10.175Z,83.40
2018-05-17T03:21:37.622Z,82.20
2018-05-17T03:24:05.088Z,83.20
2018-05-17T03:26:33.299Z,82.60
2018-05-17T03:29:00.773Z,82.50
2018-05-17T03:31:28.219Z,83.20
2018-05-17T03:33:55.684Z,83.40
2018-05-17T03:36:23.904Z,82.90
2018-05-17T03:38:51.362Z,82.90
2018-05-17T03:41:18.888Z,83.30
2018-05-17T03:43:46.344Z,83.30
2018-05-17T03:46:13.799Z,82.20
2018-05-17T03:48:41.255Z,82.00
2018-05-17T03:51:08.716Z,81.90
2018-05-17T03:53:36.173Z,82.00
2018-05-17T03:56:03.636Z,83.00
2018-05-17T03:58:31.080Z,82.30
2018-05-17T04:01:11.214Z,81.80
2018-05-17T04:03:50.544Z,81.80
2018-05-17T04:06:29.973Z,81.60
2018-05-17T04:08:57.428Z,81.60
2018-05-17T04:11:24.901Z,81.30
2018-05-17T04:13:52.446Z,81.70
2018-05-17T04:16:20.567Z,80.20
2018-05-17T04:18:48.020Z,80.10
2018-05-17T04:21:16.247Z,80.40
2018-05-17T04:23:43.716Z,80.40
2018-05-17T04:26:11.162Z,79.90
2018-05-17T04:28:38.627Z,80.50
2018-05-17T04:31:06.096Z,80.10
2018-05-17T04:33:33.539Z,79.80
2018-05-17T04:36:01.815Z,80.00
2018-05-17T04:38:29.318Z,80.00
2018-05-17T04:40:56.771Z,81.20
2018-05-17T04:43:25.001Z,80.70
2018-05-17T04:45:52.482Z,80.70
2018-05-17T04:48:19.923Z,81.30
2018-05-17T04:50:47.381Z,80.30
2018-05-17T04:53:14.839Z,80.20
2018-05-17T04:55:43.047Z,80.30
2018-05-17T04:58:10.507Z,80.20
2018-05-17T05:00:37.979Z,79.50
2018-05-17T05:03:05.455Z,80.30
2018-05-17T05:05:32.917Z,80.00
2018-05-17T05:08:00.377Z,81.20
2018-05-17T05:10:27.828Z,79.90
2018-05-17T05:12:56.054Z,78.90
2018-05-17T05:15:23.504Z,78.70
2018-05-17T05:17:50.959Z,79.50
2018-05-17T05:20:19.178Z,79.50
2018-05-17T05:22:46.628Z,78.90
2018-05-17T05:25:14.112Z,79.00
2018-05-17T05:27:42.309Z,77.60
2018-05-17T05:30:09.759Z,77.60
2018-05-17T05:32:37.232Z,79.10
2018-05-17T05:35:04.697Z,77.20
2018-05-17T05:37:32.180Z,77.50
2018-05-17T05:39:59.603Z,78.40
2018-05-17T05:42:27.832Z,77.90
2018-05-17T05:44:55.305Z,77.90
2018-05-17T05:47:22.774Z,77.10
2018-05-17T05:49:50.223Z,78.10
2018-05-17T05:52:17.695Z,78.60
2018-05-17T05:54:45.148Z,79.20
2018-05-17T05:57:13.366Z,78.60
2018-05-17T05:59:40.821Z,78.60
2018-05-17T06:02:08.277Z,79.70
2018-05-17T06:04:35.746Z,78.90
2018-05-17T06:07:03.192Z,79.00
2018-05-17T06:09:31.618Z,78.60
2018-05-17T06:11:59.099Z,78.30
2018-05-17T06:14:26.559Z,77.20
2018-05-17T06:16:54.025Z,77.00
2018-05-17T06:19:21.504Z,77.70
2018-05-17T06:21:48.956Z,78.80
2018-05-17T06:24:16.420Z,77.70
2018-05-17T06:26:43.866Z,77.50
2018-05-17T06:29:11.322Z,77.90
2018-05-17T06:31:38.775Z,77.30
2018-05-17T06:34:06.278Z,78.00
2018-05-17T06:36:33.751Z,77.50
2018-05-17T06:39:01.996Z,77.70
2018-05-17T06:41:29.447Z,77.70
2018-05-17T06:43:56.995Z,77.70
2018-05-17T06:46:24.357Z,77.90
2018-05-17T06:48:51.812Z,77.80
2018-05-17T06:51:20.107Z,75.00
2018-05-17T06:53:48.331Z,75.90
2018-05-17T06:56:15.812Z,75.90
2018-05-17T06:58:43.248Z,76.50
2018-05-17T07:01:10.713Z,75.80
2018-05-17T07:03:38.156Z,75.30
2018-05-17T07:06:05.616Z,75.90
2018-05-17T07:08:33.149Z,75.80
2018-05-17T07:11:00.620Z,75.90
2018-05-17T07:13:28.073Z,76.30
2018-05-17T07:15:55.532Z,76.00
2018-05-17T07:18:23.159Z,76.00
2018-05-17T07:20:50.447Z,76.20
2018-05-17T07:23:18.819Z,77.20
2018-05-17T07:25:46.279Z,77.20
2018-05-17T07:28:14.022Z,76.50
2018-05-17T07:30:41.472Z,77.00
2018-05-17T07:33:08.915Z,77.00
2018-05-17T07:35:37.144Z,77.20
2018-05-17T07:38:04.614Z,77.20
2018-05-17T07:40:32.055Z,77.00
2018-05-17T07:42:59.507Z,76.40
2018-05-17T07:45:27.736Z,76.30
2018-05-17T07:47:55.192Z,76.20
2018-05-17T07:50:22.655Z,74.30
2018-05-17T07:52:50.107Z,76.10
2018-05-17T07:55:18.327Z,74.40
2018-05-17T07:57:45.783Z,74.30
2018-05-17T08:00:13.265Z,75.30
2018-05-17T08:02:40.736Z,73.50
2018-05-17T08:05:08.187Z,73.00
2018-05-17T08:07:35.635Z,72.80
2018-05-17T08:10:03.859Z,73.00
2018-05-17T08:12:31.322Z,73.10
2018-05-17T08:14:58.774Z,72.20
2018-05-17T08:17:26.289Z,73.20
2018-05-17T08:19:53.741Z,72.00
2018-05-17T08:22:21.197Z,72.00
2018-05-17T08:24:48.642Z,71.30
2018-05-17T08:27:16.871Z,70.90
2018-05-17T08:29:44.343Z,70.90
2018-05-17T08:32:11.799Z,71.40
2018-05-17T08:34:39.243Z,71.30
2018-05-17T08:37:06.701Z,70.70
2018-05-17T08:39:34.924Z,71.10
2018-05-17T08:42:02.384Z,71.00
2018-05-17T08:44:29.949Z,71.30
2018-05-17T08:46:58.169Z,71.40
2018-05-17T08:49:25.628Z,71.40
2018-05-17T08:51:53.083Z,72.80
2018-05-17T08:54:20.584Z,72.10
2018-05-17T08:56:47.979Z,71.80
2018-05-17T08:59:16.199Z,70.00
2018-05-17T09:01:43.654Z,70.00
2018-05-17T09:04:11.884Z,71.80
2018-05-17T09:06:39.345Z,71.80
2018-05-17T09:09:06.810Z,69.30
2018-05-17T09:11:34.259Z,72.20
2018-05-17T09:14:01.713Z,72.40
2018-05-17T09:16:29.927Z,71.30
2018-05-17T09:18:57.383Z,71.90
2018-05-17T09:21:24.846Z,71.70
2018-05-17T09:23:53.069Z,68.20
2018-05-17T09:26:20.511Z,68.20
2018-05-17T09:28:47.968Z,69.40
2018-05-17T09:31:15.425Z,67.00
2018-05-17T09:33:43.643Z,70.20
2018-05-17T09:36:11.093Z,70.10
2018-05-17T09:38:38.557Z,69.30
2018-05-17T09:41:06.018Z,69.20
2018-05-17T09:43:34.240Z,67.80
2018-05-17T09:46:01.683Z,67.80
2018-05-17T09:48:29.144Z,68.10
2018-05-17T09:50:57.362Z,68.60
2018-05-17T09:53:24.820Z,68.60
2018-05-17T09:55:52.263Z,70.20
2018-05-17T09:58:20.497Z,66.60
2018-05-17T10:00:47.961Z,66.60
2018-05-17T10:03:15.420Z,66.70
2018-05-17T10:05:42.867Z,67.10
2018-05-17T10:08:10.320Z,66.60
2018-05-17T10:10:38.543Z,66.70
2018-05-17T10:13:05.995Z,66.70
2018-05-17T10:15:33.520Z,66.60
2018-05-17T10:18:00.912Z,64.70
2018-05-17T10:20:29.129Z,67.60
2018-05-17T10:22:56.656Z,68.20
2018-05-17T10:25:24.803Z,67.60
2018-05-17T10:27:52.248Z,67.50
2018-05-17T10:30:19.731Z,66.10
2018-05-17T10:32:47.187Z,65.50
2018-05-17T10:35:14.686Z,64.60
2018-05-17T10:37:42.112Z,64.10
2018-05-17T10:40:11.167Z,65.10
2018-05-17T10:42:38.624Z,65.10
2018-05-17T10:45:06.088Z,67.40
2018-05-17T10:47:33.542Z,65.80
2018-05-17T10:50:01.003Z,66.10
2018-05-17T10:52:28.453Z,65.70
2018-05-17T10:54:56.678Z,64.60
2018-05-17T10:57:24.124Z,64.60
2018-05-17T10:59:51.596Z,63.00
2018-05-17T11:02:19.065Z,63.60
2018-05-17T11:04:46.508Z,64.20
2018-05-17T11:07:14.745Z,64.40
2018-05-17T11:09:42.195Z,64.30
2018-05-17T11:12:09.736Z,62.60
2018-05-17T11:14:37.863Z,62.40
2018-05-17T11:17:05.320Z,62.30
2018-05-17T11:19:32.777Z,61.00
2018-05-17T11:22:00.269Z,61.30
2018-05-17T11:24:27.712Z,62.50
2018-05-17T11:26:55.184Z,63.60
2018-05-17T11:29:23.395Z,61.10
2018-05-17T11:31:50.861Z,61.10
2018-05-17T11:34:18.311Z,63.30
2018-05-17T11:36:45.784Z,62.10
2018-05-17T11:39:13.227Z,59.80
2018-05-17T11:41:41.468Z,61.30
2018-05-17T11:44:08.997Z,61.10
2018-05-17T11:46:36.383Z,60.20
2018-05-17T11:49:03.831Z,58.80
2018-05-17T11:51:32.067Z,56.00
2018-05-17T11:53:59.517Z,56.00
2018-05-17T11:56:26.980Z,56.80
2018-05-17T11:58:54.427Z,59.20
2018-05-17T12:01:22.677Z,54.10
2018-05-17T12:03:50.111Z,54.10
2018-05-17T12:06:17.566Z,54.40
2018-05-17T12:11:36.390Z,57.30
2018-05-17T12:14:03.844Z,57.20
2018-05-17T12:16:31.317Z,55.80
2018-05-17T12:18:58.763Z,57.20
2018-05-17T12:21:26.211Z,59.10
2018-05-17T12:23:54.444Z,55.30
2018-05-17T12:26:21.898Z,55.10
2018-05-17T12:28:50.124Z,58.20
2018-05-17T12:31:17.571Z,58.10
2018-05-17T12:33:45.040Z,55.10
2018-05-17T12:36:12.492Z,53.80
2018-05-17T12:38:39.953Z,56.00
2018-05-17T12:41:07.406Z,52.80
2018-05-17T12:43:35.618Z,56.10
2018-05-17T12:46:03.076Z,56.20
2018-05-17T12:48:30.532Z,52.90
2018-05-17T12:50:58.832Z,56.40
2018-05-17T12:53:26.205Z,56.30
2018-05-17T12:55:53.688Z,54.60
2018-05-17T12:58:21.161Z,54.60
2018-05-17T13:00:48.613Z,54.50
2018-05-17T13:03:16.071Z,56.90
2018-05-17T13:05:44.291Z,51.60
2018-05-17T13:08:11.752Z,51.60
2018-05-17T13:10:39.198Z,54.70
2018-05-17T13:13:07.489Z,52.60
2018-05-17T13:15:34.872Z,52.50
2018-05-17T13:18:02.362Z,55.50
2018-05-17T13:20:29.799Z,55.00
2018-05-17T13:22:57.272Z,54.70
2018-05-17T13:25:24.732Z,54.50
2018-05-17T13:27:52.940Z,50.50
2018-05-17T13:30:20.498Z,50.50
2018-05-17T13:32:47.848Z,51.10
2018-05-17T13:35:16.077Z,50.50
2018-05-17T13:37:43.533Z,50.50
2018-05-17T13:40:11.000Z,48.50
2018-05-17T13:42:38.471Z,48.40
2018-05-17T13:45:05.938Z,50.60
2018-05-17T13:47:33.452Z,49.20
2018-05-17T13:50:00.865Z,50.40
2018-05-17T13:52:28.311Z,49.70
2018-05-17T13:54:56.541Z,52.30
2018-05-17T13:57:23.987Z,52.30
2018-05-17T13:59:51.443Z,49.20
2018-05-17T14:02:18.963Z,50.40
2018-05-17T14:04:47.131Z,50.80
2018-05-17T14:07:14.580Z,50.90
2018-05-17T14:09:42.112Z,52.80
2018-05-17T14:12:09.506Z,52.00
2018-05-17T14:14:37.731Z,49.80
2018-05-17T14:17:05.183Z,50.40
2018-05-17T14:19:32.645Z,51.40
2018-05-17T14:22:00.155Z,52.50
2018-05-17T14:24:27.624Z,53.60
2018-05-17T14:26:55.082Z,51.00
2018-05-17T14:29:22.536Z,52.70
2018-05-17T14:31:50.091Z,53.10
2018-05-17T14:34:17.440Z,51.00
2018-05-17T14:36:45.672Z,49.00
2018-05-17T14:39:13.133Z,48.90
2018-05-17T14:41:40.628Z,51.50
2018-05-17T14:44:08.071Z,51.70
2018-05-17T14:46:35.564Z,47.80
2018-05-17T14:49:03.103Z,48.40
2018-05-17T14:51:30.564Z,48.70
2018-05-17T14:53:58.017Z,50.30
2018-05-17T14:56:25.476Z,50.30
2018-05-17T14:58:53.689Z,48.50
2018-05-17T15:01:21.170Z,48.50
2018-05-17T15:03:48.605Z,49.40
2018-05-17T15:06:16.832Z,49.30
2018-05-17T15:08:44.403Z,49.20
2018-05-17T15:11:14.757Z,48.20
2018-05-17T15:13:39.211Z,51.00
2018-05-17T15:16:07.425Z,51.30
2018-05-17T15:18:35.002Z,51.30
2018-05-17T15:21:02.461Z,49.20
2018-05-17T15:23:29.916Z,49.20
2018-05-17T15:25:57.369Z,51.20
2018-05-17T15:28:25.600Z,49.00
2018-05-17T16:52:51.053Z,51.10
2018-05-17T16:55:18.399Z,51.00
2018-05-17T16:57:45.853Z,49.80
2018-05-17T17:00:14.078Z,52.80
2018-05-17T17:02:41.532Z,52.80
2018-05-17T17:05:09.117Z,49.50
2018-05-17T17:07:36.604Z,49.40
2018-05-17T17:10:04.005Z,50.60
2018-05-17T17:12:33.826Z,52.20
2018-05-17T17:15:01.272Z,52.10
2018-05-17T17:17:28.720Z,52.90
2018-05-17T17:19:56.172Z,52.60
2018-05-17T17:22:23.626Z,52.90
2018-05-17T17:24:51.117Z,50.30
2018-05-17T17:27:18.569Z,49.40
2018-05-17T17:29:46.037Z,48.60
2018-05-17T17:32:13.476Z,48.70
2018-05-17T17:34:41.096Z,48.10
2018-05-17T17:37:08.530Z,48.80
2018-05-17T17:39:36.761Z,49.50
2018-05-17T17:42:04.206Z,49.40
2018-05-17T17:44:31.660Z,49.10
2018-05-17T17:46:59.126Z,49.70
2018-05-17T17:49:27.337Z,49.80
2018-05-17T17:51:54.796Z,49.80
2018-05-17T17:54:22.259Z,51.70
2018-05-17T17:56:50.472Z,50.80
2018-05-17T17:59:17.942Z,50.80
2018-05-17T18:01:45.398Z,50.40
2018-05-17T18:04:12.844Z,49.90
2018-05-17T18:06:41.065Z,50.60
2018-05-17T18:09:08.513Z,50.60
2018-05-17T18:11:35.970Z,50.70
2018-05-17T18:14:04.183Z,50.00
2018-05-17T18:19:05.491Z,51.00
2018-05-17T18:21:32.967Z,50.90
2018-05-17T18:24:00.476Z,51.90
2018-05-17T18:26:27.876Z,52.00
2018-05-17T18:28:55.323Z,52.90
2018-05-17T18:31:22.784Z,52.10
2018-05-17T18:33:51.083Z,52.20
2018-05-17T18:36:18.453Z,52.20
2018-05-17T18:38:45.895Z,53.50
2018-05-17T18:41:14.656Z,53.10
2018-05-17T18:43:42.132Z,53.10
2018-05-17T18:46:09.604Z,53.40
2018-05-17T18:53:27.297Z,51.90
2018-05-17T18:55:54.811Z,51.50
2018-05-17T18:58:22.201Z,51.90
2018-05-17T19:00:49.678Z,52.30
2018-05-17T19:03:17.128Z,53.50
2018-05-17T19:05:44.593Z,53.30
2018-05-17T19:08:12.801Z,53.40
2018-05-17T19:10:40.253Z,53.30
2018-05-17T19:13:07.711Z,53.40
2018-05-17T19:15:35.928Z,54.70
2018-05-17T19:18:03.390Z,54.70
2018-05-17T19:20:30.907Z,53.90
2018-05-17T19:22:58.296Z,53.90
2018-05-17T19:25:26.515Z,54.40
2018-05-17T19:27:53.972Z,54.30
2018-05-17T19:30:21.415Z,54.30
2018-05-17T19:32:49.639Z,55.20
2018-05-17T19:35:17.084Z,55.10
2018-05-17T19:37:45.299Z,54.70
2018-05-17T19:40:12.766Z,54.60
2018-05-17T19:42:40.220Z,54.90
2018-05-17T19:45:07.676Z,54.90
2018-05-17T19:47:35.982Z,54.70
2018-05-17T19:50:03.427Z,54.70
2018-05-17T19:52:32.624Z,54.20
2018-05-17T19:55:00.831Z,54.30
2018-05-17T19:57:28.294Z,54.30
2018-05-17T19:59:56.544Z,53.90
2018-05-17T20:02:23.989Z,53.90
2018-05-17T20:04:51.480Z,54.00
2018-05-17T20:07:18.904Z,54.50
2018-05-17T20:09:46.356Z,54.10
2018-05-17T20:12:14.576Z,52.70
2018-05-17T20:14:42.031Z,52.70
2018-05-17T20:17:09.531Z,53.30
2018-05-17T20:19:36.984Z,53.80
2018-05-17T20:22:04.459Z,53.50
2018-05-17T20:24:31.959Z,53.40
2018-05-17T20:26:59.496Z,53.30
2018-05-17T20:29:26.947Z,53.40
2018-05-17T20:31:54.396Z,53.20
2018-05-17T20:34:22.615Z,56.00
2018-05-17T20:36:50.064Z,56.00
2018-05-17T20:39:17.525Z,56.00
2018-05-17T20:41:45.736Z,55.40
2018-05-17T20:44:13.198Z,55.40
2018-05-17T20:46:40.648Z,55.40
2018-05-17T20:49:08.899Z,56.10
2018-05-17T20:51:36.347Z,56.10
2018-05-17T20:54:03.808Z,55.80
2018-05-17T20:56:31.253Z,54.90
2018-05-17T20:58:58.700Z,54.50
2018-05-17T21:01:26.925Z,54.60
2018-05-17T21:03:54.368Z,54.60
2018-05-17T21:06:21.828Z,55.00
2018-05-17T21:08:50.035Z,54.70
2018-05-17T21:11:17.501Z,54.60
2018-05-17T21:13:45.006Z,55.80
2018-05-17T21:16:12.484Z,55.80
2018-05-17T21:18:39.921Z,55.80
2018-05-17T21:21:07.382Z,56.10
2018-05-17T21:23:34.829Z,55.00
2018-05-17T21:26:03.052Z,56.50
2018-05-17T21:28:30.497Z,56.50
2018-05-17T21:30:57.957Z,55.90
2018-05-17T21:33:26.172Z,56.60
2018-05-17T21:35:53.632Z,56.60
2018-05-17T21:38:21.077Z,56.10
2018-05-17T21:40:49.312Z,56.20
2018-05-17T21:43:16.764Z,56.00
2018-05-17T21:45:44.221Z,56.20
2018-05-17T21:48:11.662Z,56.90
2018-05-17T21:50:39.879Z,58.10
2018-05-17T21:53:07.401Z,57.40
2018-05-17T21:55:35.678Z,57.40
2018-05-17T21:58:03.016Z,57.30
2018-05-17T22:00:30.463Z,57.60
2018-05-17T22:02:57.937Z,57.20
2018-05-17T22:05:25.388Z,57.00
2018-05-17T22:07:53.625Z,57.70
2018-05-17T22:10:21.080Z,57.60
2018-05-17T22:12:48.530Z,57.90
2018-05-17T22:15:15.980Z,57.90
2018-05-17T22:17:44.197Z,57.00
2018-05-17T22:20:11.643Z,56.90
2018-05-17T22:22:39.108Z,57.70
2018-05-17T22:25:07.319Z,57.70
2018-05-17T22:27:34.787Z,57.60
2018-05-17T22:30:02.300Z,57.50
2018-05-17T22:32:29.759Z,57.90
2018-05-17T22:34:57.235Z,56.30
2018-05-17T22:37:24.703Z,57.60
2018-05-17T22:39:52.152Z,56.40
2018-05-17T22:42:19.603Z,57.10
2018-05-17T22:44:47.056Z,57.30
2018-05-17T22:47:14.520Z,56.90
2018-05-17T22:49:41.968Z,57.20
2018-05-17T22:52:09.418Z,57.20
2018-05-17T22:54:36.858Z,57.60
2018-05-17T22:57:12.144Z,57.00
2018-05-17T22:59:39.585Z,56.90
2018-05-17T23:02:07.044Z,57.50
2018-05-17T23:04:34.496Z,58.10
2018-05-17T23:07:01.957Z,57.80
2018-05-17T23:09:29.408Z,58.00
2018-05-17T23:11:57.640Z,58.10
2018-05-17T23:14:25.076Z,58.00
2018-05-17T23:16:52.524Z,57.50
2018-05-17T23:19:19.980Z,58.10
2018-05-17T23:21:47.423Z,58.10
2018-05-17T23:24:14.884Z,57.80
2018-05-17T23:26:42.410Z,57.70
2018-05-17T23:29:10.623Z,59.30
2018-05-17T23:31:38.067Z,59.20
2018-05-17T23:34:06.293Z,59.10
2018-05-17T23:36:33.745Z,59.00
2018-05-17T23:39:01.192Z,59.90
2018-05-17T23:41:35.272Z,60.40
2018-05-17T23:44:02.728Z,60.40
2018-05-17T23:46:30.167Z,60.40
2018-05-17T23:48:57.636Z,60.40
2018-05-17T23:51:25.075Z,60.40
2018-05-17T23:53:52.539Z,60.00
2018-05-17T23:56:19.984Z,60.80
2018-05-17T23:58:47.462Z,60.20
